Terminal Aerodrome Forecast
Issued by NWS

Home | Current Version | Previous Version | Text Only | Print | Product List | Glossary On
Versions: 1 2 3 4 5 6 7 8 9 10 11 12 13 14 15 16 17 18 19 20 21 22 23 24 25 26 27 28 29 30 31
000
FTUS41 KRNK 140520
TAFBCB
TAF
KBCB 140520Z 1406/1506 29005KT P6SM SCT250
     FM141200 00000KT P6SM OVC150
     FM141800 14006KT P6SM OVC080
     FM142200 14006KT P6SM -SN SCT018 OVC040
     FM150000 13008KT 2SM -SN BR OVC018
     FM150400 14006KT 1SM -SN BR OVC007=

USA.gov is the U.S. government's official web portal to all federal, state and local government web resources and services.